Austinville, Iowa
Current Conditions -  °F | °C
As of 4:55 PM on Thursday 27 Nov 2014 (Local Time) from KIFA Reporting Station
Clear Clear  
Wind Chill:   Ceiling: Unl
Heat Index:   Visibility: 10mi
Dew Point: -2°   Wind: 0mph
Humidity: 81%   Direction: NA
Pressure: 30.43"   Gusts: NA
Location:  42.59°N, 92.96°W
Report Text: KIFA 272255Z AUTO 00000KT 10SM CLR M16/M19 A3043 RMK AO2 T11651191
Loading
Personal Weather Stations






























Interactive Weather Map New forecast layout! Learn more

10-Day Weather Forecast

Advertisements
Track Severe Weather on mobile